Airfield :
LOGIN :

Register | Disclaimer

   EN    FR    IT 

 










Legend :    VFR   Marginal VFR   IFR   Intensive IFR   Very Intensive IFR
Visi :
Ceiling :
>= 8 km
>= 3000ft
5 to 8 km
1000 to 3000 ft
1500m to 5 km
500 to 1000 ft
800 to 1500m
200 to 500 ft
< 800m
< 200 ft
Symbols :   Thunderstorms  Fog  Heavy snow  Heavy precipitations  Wind > 20 kt
SIGMETs :     Misc.  Thunderstorms  Icing  Turbulence  Mountain Waves  Volcanic Ashes






- Airport Elevation : 538 ft
- IATA code : TNF


LFPN - Toussus Le Noble

CURRENT METAR :
  • 192200Z AUTO 18005KT 140V210 6000 BKN004 OVC011 19/19 Q1009

EXPIRED METARs :
  • 192130Z AUTO 20005KT 5000 BR BKN006 OVC013 19/19 Q1010
  • 192100Z AUTO 15003KT 6000 OVC005 19/19 Q1009 TEMPO 4000 SHRA BKN006 BKN025CB
  • 192030Z AUTO VRB02KT 7000 3000 OVC005 19/18 Q1009 TEMPO 4000 SHRA BKN006 BKN025CB
  • 192000Z AUTO 06004KT 7000 OVC006 19/18 Q1009 TEMPO 4000 SHRA BKN006 BKN025CB
  • 191930Z AUTO 03006KT 010V080 9000 OVC006 19/18 Q1009 TEMPO 4000 SHRA BKN006 BKN025CB

TAF AMD TAF LFPN
Valid from the 19 at 18:00 until the 20 at 03:00 UTC


191820Z 1918/2003 VRB04KT 9999 FEW030CB
TEMPO 1918/1922 4000 SHRA BKN006 BKN025CB
BECMG 1922/1924 22006KT BKN020
PROB30
TEMPO 1923/2003 BKN006
ATIS : +33 1 39 56 54 70



MET'MAP, your aeronautical weather chart ! - Copyright ORBIFLY December 2007 - Disclaimer

ORBIFLY MET'MAP TEAM :

Programming & Development : Alexandra Zaïnal
Concept & original design : Baudouin d'Aumeries
Assistance for programming : Marc-Olivier Méhu
Technical & hardware support : Manuel Goepfert

Contact : metmap@orbifly.com




SOURCES & CREDITS :

   NOAA